Time;durP1;ratioP1;P1;durP2;ratioP2;P2;SDS_P1;SDS_P2;PMS_P1;PMS_P2;Temp;Humidity;BMP_temperature;BMP_pressure;BME280_temperature;BME280_humidity;BME280_pressure;Samples;Min_cycle;Max_cycle;Signal;HPM_P1;HPM_P2
2022/04/08 00:02:08;;;;;;;7.97;6.20;;;;;;;8.57;100.00;96503.47;5153356;27;20184;-63
2022/04/08 00:04:34;;;;;;;16.75;8.38;;;;;;;8.56;100.00;96514.78;5153742;27;20046;-64
2022/04/08 00:07:02;;;;;;;18.88;9.90;;;;;;;8.51;100.00;96526.19;5153681;27;20550;-64
2022/04/08 00:09:28;;;;;;;8.52;6.53;;;;;;;8.43;100.00;96536.44;5153426;27;20437;-63
2022/04/08 00:11:55;;;;;;;8.75;6.63;;;;;;;8.40;100.00;96545.50;5153488;27;20051;-64
2022/04/08 00:14:21;;;;;;;11.13;6.90;;;;;;;8.41;100.00;96557.94;5153899;27;20046;-64
2022/04/08 00:16:48;;;;;;;8.20;5.43;;;;;;;8.38;100.00;96572.41;5153692;27;20050;-64
2022/04/08 00:19:14;;;;;;;7.72;5.32;;;;;;;8.39;100.00;96591.09;5153627;27;20429;-64
2022/04/08 00:21:40;;;;;;;7.10;5.35;;;;;;;8.44;100.00;96609.00;5152845;27;20042;-63
2022/04/08 00:24:08;;;;;;;7.55;5.50;;;;;;;8.44;100.00;96614.44;5153031;27;20177;-64
2022/04/08 00:26:34;;;;;;;8.82;5.53;;;;;;;8.41;100.00;96628.91;5153175;27;20051;-64
2022/04/08 00:29:00;;;;;;;10.07;5.43;;;;;;;8.47;100.00;96644.44;5152994;27;20398;-64
2022/04/08 00:31:26;;;;;;;9.10;5.65;;;;;;;8.49;100.00;96666.63;5153283;27;20054;-63
2022/04/08 00:33:52;;;;;;;11.75;5.40;;;;;;;8.47;100.00;96681.88;5152848;27;20054;-64
2022/04/08 00:36:19;;;;;;;7.65;5.32;;;;;;;8.45;100.00;96695.16;5152831;27;20046;-63
2022/04/08 00:38:45;;;;;;;8.75;5.15;;;;;;;8.54;100.00;96708.31;5153135;27;20046;-64
2022/04/08 00:41:13;;;;;;;11.75;6.45;;;;;;;8.51;100.00;96733.72;5153036;27;20485;-64
2022/04/08 00:43:40;;;;;;;16.05;6.30;;;;;;;8.51;100.00;96736.44;5152638;27;20522;-64
2022/04/08 00:46:09;;;;;;;9.85;6.35;;;;;;;8.52;100.00;96752.41;5152739;27;20053;-64
2022/04/08 00:48:36;;;;;;;8.63;6.10;;;;;;;8.53;100.00;96766.84;5152168;27;20530;-63
2022/04/08 00:51:05;;;;;;;8.55;5.07;;;;;;;8.56;100.00;96785.13;5152642;27;20050;-63
2022/04/08 00:53:31;;;;;;;11.20;5.40;;;;;;;8.58;100.00;96789.00;5152653;27;20095;-63
2022/04/08 00:55:58;;;;;;;7.18;6.18;;;;;;;8.56;100.00;96790.59;5152667;27;20462;-64
2022/04/08 00:58:26;;;;;;;9.50;5.13;;;;;;;8.63;100.00;96802.22;5151960;27;20055;-62
2022/04/08 01:00:53;;;;;;;12.88;5.53;;;;;;;8.60;100.00;96797.56;5152016;27;20053;-64
2022/04/08 01:03:19;;;;;;;10.95;6.20;;;;;;;8.60;100.00;96792.13;5152430;27;20099;-63
2022/04/08 01:05:45;;;;;;;6.93;5.43;;;;;;;8.62;100.00;96794.41;5152810;27;20058;-63
2022/04/08 01:08:14;;;;;;;15.00;6.45;;;;;;;8.61;100.00;96790.16;5152475;27;20046;-63
2022/04/08 01:10:41;;;;;;;13.75;6.10;;;;;;;8.59;100.00;96790.53;5152376;27;20133;-63
2022/04/08 01:13:07;;;;;;;9.85;6.28;;;;;;;8.57;100.00;96797.63;5152771;27;20497;-63
2022/04/08 01:15:34;;;;;;;9.68;5.85;;;;;;;8.58;100.00;96796.44;5152168;27;20480;-64
2022/04/08 01:18:01;;;;;;;8.30;5.47;;;;;;;8.60;100.00;96792.13;5152450;27;20054;-63
2022/04/08 01:20:27;;;;;;;9.90;6.32;;;;;;;8.58;100.00;96777.31;5152373;27;20050;-64
2022/04/08 01:22:53;;;;;;;9.38;5.20;;;;;;;8.64;100.00;96773.72;5152267;27;20051;-63
2022/04/08 01:25:20;;;;;;;16.70;6.10;;;;;;;8.59;100.00;96763.25;5152326;27;20046;-63
2022/04/08 01:27:46;;;;;;;9.82;6.00;;;;;;;8.62;100.00;96753.47;5152237;27;20055;-64
2022/04/08 01:30:12;;;;;;;9.82;6.85;;;;;;;8.60;100.00;96740.22;5152339;27;20636;-62
2022/04/08 01:32:39;;;;;;;7.13;5.35;;;;;;;8.60;100.00;96736.72;5152033;27;20099;-64
2022/04/08 01:35:05;;;;;;;8.60;5.75;;;;;;;8.60;100.00;96723.06;5152312;27;20047;-63
2022/04/08 01:37:32;;;;;;;7.85;5.63;;;;;;;8.64;100.00;96726.53;5152030;27;20095;-63
2022/04/08 01:39:58;;;;;;;9.35;6.43;;;;;;;8.67;100.00;96706.59;5152315;27;20046;-63
2022/04/08 01:42:25;;;;;;;8.85;5.80;;;;;;;8.69;100.00;96704.19;5151821;27;20416;-63
2022/04/08 01:44:51;;;;;;;7.68;5.50;;;;;;;8.69;100.00;96688.56;5152159;27;20053;-63
2022/04/08 01:47:18;;;;;;;9.02;5.35;;;;;;;8.69;100.00;96658.53;5151799;27;20057;-63
2022/04/08 01:49:44;;;;;;;9.63;5.38;;;;;;;8.67;100.00;96650.00;5151266;27;20057;-64
2022/04/08 01:52:10;;;;;;;9.73;5.50;;;;;;;8.72;100.00;96635.09;5151779;27;20051;-64
2022/04/08 01:54:36;;;;;;;8.68;5.72;;;;;;;8.74;100.00;96640.91;5151519;27;20050;-64
2022/04/08 01:57:03;;;;;;;11.95;5.85;;;;;;;8.80;100.00;96633.81;5151679;27;20551;-63
2022/04/08 01:59:30;;;;;;;7.10;4.95;;;;;;;8.78;100.00;96627.97;5151513;27;20527;-63
2022/04/08 02:01:59;;;;;;;6.88;5.13;;;;;;;8.77;100.00;96596.38;5151804;27;20095;-63
2022/04/08 02:04:25;;;;;;;8.40;5.18;;;;;;;8.78;100.00;96567.88;5151631;27;20050;-64
2022/04/08 02:06:51;;;;;;;6.43;4.28;;;;;;;8.78;100.00;96548.75;5151770;27;20049;-64
2022/04/08 02:09:18;;;;;;;14.15;5.13;;;;;;;8.80;100.00;96564.75;5151539;27;20066;-63
2022/04/08 02:11:45;;;;;;;7.13;5.25;;;;;;;8.90;100.00;96541.94;5151323;27;20043;-63
2022/04/08 02:14:11;;;;;;;9.30;5.75;;;;;;;8.95;100.00;96538.69;5151320;27;20047;-63
2022/04/08 02:16:38;;;;;;;7.53;4.25;;;;;;;9.04;100.00;96519.78;5151239;27;20067;-64
2022/04/08 02:19:05;;;;;;;9.27;5.40;;;;;;;9.08;100.00;96503.34;5151334;27;20047;-63
2022/04/08 02:21:31;;;;;;;8.85;5.43;;;;;;;9.19;100.00;96485.53;5151225;27;20058;-63
2022/04/08 02:23:57;;;;;;;9.80;4.43;;;;;;;9.23;100.00;96424.53;5151186;27;20050;-64
2022/04/08 02:26:23;;;;;;;10.57;5.05;;;;;;;9.18;100.00;96362.94;5151259;27;20047;-63
2022/04/08 02:28:49;;;;;;;7.85;4.32;;;;;;;9.12;100.00;96338.06;5151308;27;20047;-64
2022/04/08 02:31:16;;;;;;;6.53;5.10;;;;;;;9.20;100.00;96368.78;5151444;27;20489;-64
2022/04/08 02:33:42;;;;;;;8.38;5.32;;;;;;;9.27;100.00;96337.78;5151499;27;20050;-63
2022/04/08 02:36:09;;;;;;;9.13;5.15;;;;;;;9.27;100.00;96324.13;5151000;27;20050;-64
2022/04/08 02:38:35;;;;;;;10.45;5.45;;;;;;;9.28;100.00;96310.00;5151067;27;20047;-64
2022/04/08 02:41:01;;;;;;;9.25;4.97;;;;;;;9.27;100.00;96305.75;5151166;27;20397;-63
2022/04/08 02:43:27;;;;;;;10.80;5.55;;;;;;;9.28;100.00;96301.03;5151427;27;20532;-63
2022/04/08 02:45:53;;;;;;;8.40;5.43;;;;;;;9.31;100.00;96313.88;5151244;27;20482;-64
2022/04/08 02:48:19;;;;;;;13.57;5.65;;;;;;;9.30;100.00;96288.50;5150473;27;20058;-64
2022/04/08 02:50:47;;;;;;;13.57;5.78;;;;;;;9.32;100.00;96321.63;5150907;27;20066;-63
2022/04/08 02:53:13;;;;;;;8.50;5.22;;;;;;;9.21;100.00;96277.38;5150814;27;20394;-64
2022/04/08 02:55:39;;;;;;;11.88;5.70;;;;;;;9.18;100.00;96320.00;5150920;27;20046;-64
2022/04/08 02:58:05;;;;;;;6.28;4.82;;;;;;;9.14;100.00;96330.25;5150940;27;20051;-63
2022/04/08 03:00:32;;;;;;;11.32;5.30;;;;;;;9.15;100.00;96311.88;5150755;27;20051;-64
2022/04/08 03:02:58;;;;;;;15.48;6.50;;;;;;;9.16;100.00;96327.84;5150483;27;20051;-64
2022/04/08 03:05:24;;;;;;;10.95;4.75;;;;;;;9.12;100.00;96305.28;5151142;27;20413;-63
2022/04/08 03:07:52;;;;;;;7.40;4.97;;;;;;;8.99;100.00;96307.13;5150589;27;20046;-64
2022/04/08 03:10:18;;;;;;;8.73;5.55;;;;;;;8.98;100.00;96324.72;5151016;27;20051;-64
2022/04/08 03:12:44;;;;;;;9.75;5.55;;;;;;;9.05;100.00;96348.41;5150835;27;20059;-64
2022/04/08 03:15:11;;;;;;;11.40;5.65;;;;;;;9.03;100.00;96348.03;5150486;27;20099;-63
2022/04/08 03:17:37;;;;;;;9.05;5.03;;;;;;;9.11;100.00;96420.50;5150684;27;20055;-64
2022/04/08 03:20:05;;;;;;;9.18;5.28;;;;;;;9.22;100.00;96382.00;5150471;27;20057;-64
2022/04/08 03:22:31;;;;;;;8.55;5.32;;;;;;;9.18;100.00;96361.00;5151497;27;20444;-64
2022/04/08 03:24:58;;;;;;;9.18;6.20;;;;;;;9.14;100.00;96354.06;5154025;27;20478;-63
2022/04/08 03:27:24;;;;;;;14.13;6.18;;;;;;;9.17;100.00;96375.09;5153882;27;20043;-63
2022/04/08 03:29:50;;;;;;;7.82;5.30;;;;;;;9.15;100.00;96397.38;5153995;27;20051;-64
2022/04/08 03:32:16;;;;;;;10.52;5.35;;;;;;;9.12;100.00;96428.25;5154283;27;20474;-64
2022/04/08 03:34:43;;;;;;;8.50;5.60;;;;;;;9.08;100.00;96446.72;5153749;27;20051;-64
2022/04/08 03:37:10;;;;;;;9.73;6.15;;;;;;;9.05;100.00;96457.72;5154161;27;20043;-63
2022/04/08 03:39:36;;;;;;;16.20;6.45;;;;;;;9.13;100.00;96461.84;5153647;27;20052;-64
2022/04/08 03:42:03;;;;;;;12.55;6.50;;;;;;;9.12;100.00;96443.91;5153811;27;20095;-63
2022/04/08 03:44:29;;;;;;;13.32;5.90;;;;;;;9.20;100.00;96464.44;5153489;27;20062;-64
2022/04/08 03:46:55;;;;;;;11.68;6.03;;;;;;;9.22;100.00;96502.28;5153722;27;20407;-64
2022/04/08 03:49:22;;;;;;;10.30;6.03;;;;;;;9.22;100.00;96515.94;5153281;27;20047;-64
2022/04/08 03:51:48;;;;;;;17.08;7.60;;;;;;;9.24;100.00;96544.41;5153386;27;20061;-64
2022/04/08 03:54:14;;;;;;;10.07;5.35;;;;;;;9.15;100.00;96527.78;5153593;27;20051;-63
2022/04/08 03:56:42;;;;;;;10.80;5.50;;;;;;;9.18;100.00;96541.38;5153505;27;20046;-64
2022/04/08 03:59:09;;;;;;;12.45;4.90;;;;;;;9.18;100.00;96519.53;5153907;27;20051;-63
2022/04/08 04:01:35;;;;;;;11.65;5.72;;;;;;;9.07;100.00;96512.72;5153303;27;20051;-64
2022/04/08 04:04:01;;;;;;;8.57;5.53;;;;;;;9.22;100.00;96535.09;5153724;27;20460;-63
2022/04/08 04:06:27;;;;;;;11.15;5.85;;;;;;;9.35;100.00;96550.44;5153365;27;20047;-64
2022/04/08 04:08:54;;;;;;;12.02;5.57;;;;;;;9.33;100.00;96524.69;5153485;27;20051;-63
2022/04/08 04:11:20;;;;;;;8.32;5.28;;;;;;;9.27;100.00;96499.06;5153483;27;20057;-63
2022/04/08 04:13:47;;;;;;;8.45;6.00;;;;;;;9.22;100.00;96551.50;5153499;27;20051;-63
2022/04/08 04:16:14;;;;;;;9.93;6.00;;;;;;;9.24;100.00;96626.44;5153380;27;20538;-63
2022/04/08 04:18:40;;;;;;;9.13;6.43;;;;;;;9.15;100.00;96673.44;5153251;27;20058;-64
2022/04/08 04:21:08;;;;;;;8.77;6.13;;;;;;;9.01;100.00;96686.56;5153582;27;20063;-64
2022/04/08 04:23:34;;;;;;;13.30;7.20;;;;;;;8.86;100.00;96677.78;5153095;27;20145;-64
2022/04/08 04:26:01;;;;;;;11.77;6.25;;;;;;;8.57;100.00;96655.63;5153574;27;20058;-62
2022/04/08 04:28:28;;;;;;;7.53;5.20;;;;;;;8.37;100.00;96626.22;5153198;27;20495;-62
2022/04/08 04:30:55;;;;;;;18.55;6.80;;;;;;;8.33;100.00;96584.56;5153561;27;20468;-63
2022/04/08 04:33:21;;;;;;;11.13;5.93;;;;;;;8.39;100.00;96552.13;5152802;27;20058;-64
2022/04/08 04:35:48;;;;;;;12.23;6.72;;;;;;;8.28;100.00;96522.22;5153320;27;20053;-63
2022/04/08 04:38:14;;;;;;;11.63;5.47;;;;;;;8.10;100.00;96521.75;5153154;27;20133;-63
2022/04/08 04:40:40;;;;;;;12.02;6.38;;;;;;;8.12;100.00;96487.38;5152669;27;20046;-63
2022/04/08 04:43:07;;;;;;;11.60;6.47;;;;;;;8.20;100.00;96460.75;5152801;27;20050;-63
2022/04/08 04:45:34;;;;;;;9.00;6.60;;;;;;;8.19;100.00;96440.09;5152553;27;20523;-64
2022/04/08 04:48:00;;;;;;;9.32;6.18;;;;;;;8.05;100.00;96430.19;5152923;27;20131;-64
2022/04/08 04:50:27;;;;;;;10.80;6.53;;;;;;;8.09;100.00;96400.88;5152135;27;20501;-66
2022/04/08 04:52:53;;;;;;;14.02;7.80;;;;;;;8.01;100.00;96375.69;5152618;27;20059;-66
2022/04/08 04:55:20;;;;;;;13.93;7.85;;;;;;;8.04;100.00;96362.41;5152532;27;20050;-64
2022/04/08 04:57:46;;;;;;;15.27;7.32;;;;;;;8.05;100.00;96345.63;5152803;27;20046;-65
2022/04/08 05:00:13;;;;;;;14.88;7.60;;;;;;;8.08;100.00;96338.56;5152273;27;20047;-64
2022/04/08 05:02:39;;;;;;;12.23;7.30;;;;;;;8.02;100.00;96349.94;5152578;27;20054;-64
2022/04/08 05:05:06;;;;;;;16.52;8.43;;;;;;;7.97;100.00;96350.44;5152230;27;20051;-64
2022/04/08 05:07:33;;;;;;;13.65;8.23;;;;;;;8.05;100.00;96361.22;5152331;27;20046;-63
2022/04/08 05:09:59;;;;;;;17.52;8.25;;;;;;;8.11;100.00;96356.81;5152346;27;20497;-63
2022/04/08 05:12:25;;;;;;;12.60;7.53;;;;;;;8.16;100.00;96354.41;5149708;27;20049;-62
2022/04/08 05:14:52;;;;;;;16.52;8.60;;;;;;;8.44;100.00;96364.03;5152159;27;20057;-64
2022/04/08 05:17:18;;;;;;;19.33;10.82;;;;;;;8.56;100.00;96397.38;5142283;27;20051;-68
2022/04/08 05:19:44;;;;;;;30.60;12.93;;;;;;;8.68;100.00;96416.63;5143928;27;20043;-63
2022/04/08 05:22:10;;;;;;;30.77;14.07;;;;;;;8.71;100.00;96451.31;5131715;28;20051;-64
2022/04/08 05:24:37;;;;;;;29.63;12.18;;;;;;;8.76;100.00;96469.16;5131486;27;20434;-65
2022/04/08 05:27:05;;;;;;;17.77;10.18;;;;;;;8.74;100.00;96481.72;5132517;27;20065;-64
2022/04/08 05:29:31;;;;;;;18.73;8.75;;;;;;;8.81;100.00;96490.56;5142837;27;20053;-64
2022/04/08 05:31:57;;;;;;;19.10;7.68;;;;;;;8.78;100.00;96496.84;5151960;27;20050;-64
2022/04/08 05:34:23;;;;;;;18.95;8.60;;;;;;;8.75;100.00;96480.53;5151808;27;20047;-64
2022/04/08 05:36:49;;;;;;;22.63;10.43;;;;;;;8.66;100.00;96478.31;5151856;27;20043;-63
2022/04/08 05:39:16;;;;;;;11.98;7.25;;;;;;;8.63;100.00;96468.22;5152079;27;20410;-62
2022/04/08 05:41:42;;;;;;;13.77;8.13;;;;;;;8.69;100.00;96447.44;5151674;27;20079;-66
2022/04/08 05:44:09;;;;;;;12.35;7.15;;;;;;;8.66;100.00;96423.69;5151583;27;20061;-63
2022/04/08 05:46:35;;;;;;;11.63;7.13;;;;;;;8.67;100.00;96428.75;5150643;27;20042;-63
2022/04/08 05:49:02;;;;;;;12.63;6.97;;;;;;;8.64;100.00;96442.50;5151385;27;20082;-64
2022/04/08 05:51:28;;;;;;;14.38;6.38;;;;;;;8.71;100.00;96437.66;5151651;27;20050;-61
2022/04/08 05:53:54;;;;;;;13.05;5.65;;;;;;;8.73;100.00;96459.09;5151173;27;20050;-61
2022/04/08 05:56:20;;;;;;;13.30;6.68;;;;;;;8.77;100.00;96480.88;5151287;27;20425;-60
2022/04/08 05:58:47;;;;;;;11.50;5.97;;;;;;;8.75;100.00;96456.72;5151551;27;20062;-61
2022/04/08 06:01:13;;;;;;;10.07;5.40;;;;;;;8.81;100.00;96479.63;5151136;27;20062;-65
2022/04/08 06:03:40;;;;;;;13.65;5.50;;;;;;;8.82;100.00;96494.06;5151715;27;20901;-65
2022/04/08 06:06:06;;;;;;;21.30;9.35;;;;;;;8.76;100.00;96507.41;5151784;27;20499;-65
2022/04/08 06:08:32;;;;;;;26.88;11.90;;;;;;;8.70;100.00;96493.47;5152042;27;20494;-64
2022/04/08 06:10:58;;;;;;;25.05;10.45;;;;;;;8.67;100.00;96477.94;5151437;27;20565;-66
2022/04/08 06:13:26;;;;;;;19.33;9.32;;;;;;;8.67;100.00;96461.53;5151717;27;20092;-63
2022/04/08 06:15:53;;;;;;;22.13;10.80;;;;;;;8.66;100.00;96459.22;5151331;27;20142;-64
2022/04/08 06:18:19;;;;;;;20.23;11.55;;;;;;;8.62;100.00;96447.59;5151050;27;20046;-62
2022/04/08 06:20:45;;;;;;;24.30;11.73;;;;;;;8.62;100.00;96426.50;5151345;27;20099;-62
2022/04/08 06:23:12;;;;;;;28.30;10.55;;;;;;;8.62;100.00;96466.69;5151516;27;20099;-65
2022/04/08 06:25:38;;;;;;;16.80;8.45;;;;;;;8.63;100.00;96470.97;5151335;27;20067;-66
2022/04/08 06:28:07;;;;;;;14.30;5.05;;;;;;;8.61;100.00;96487.00;5142545;27;20099;-65
2022/04/08 06:30:35;;;;;;;18.88;6.25;;;;;;;8.59;100.00;96489.38;5130421;28;20051;-64
2022/04/08 06:33:02;;;;;;;14.48;6.30;;;;;;;8.54;100.00;96509.75;5129015;27;20051;-65
2022/04/08 06:35:28;;;;;;;18.50;6.65;;;;;;;8.65;100.00;96554.03;5130204;28;20051;-68
2022/04/08 06:37:58;;;;;;;14.93;5.65;;;;;;;8.76;100.00;96583.13;5130153;27;20062;-68
2022/04/08 06:40:24;;;;;;;13.10;4.85;;;;;;;8.91;100.00;96606.31;5138571;27;20050;-70
2022/04/08 06:42:55;;;;;;;8.88;3.88;;;;;;;9.10;100.00;96621.22;5148701;27;20046;-67
2022/04/08 06:45:23;;;;;;;6.65;4.07;;;;;;;9.23;100.00;96654.16;5151001;27;20051;-65
2022/04/08 06:47:49;;;;;;;19.20;5.13;;;;;;;9.50;100.00;96652.13;5150731;27;20053;-64
2022/04/08 06:50:17;;;;;;;6.03;3.30;;;;;;;9.70;100.00;96682.25;5150716;27;20379;-64
2022/04/08 06:52:43;;;;;;;7.07;2.80;;;;;;;9.69;100.00;96748.31;5150755;27;20129;-64
2022/04/08 06:55:11;;;;;;;6.93;3.22;;;;;;;9.72;100.00;96772.88;5137942;27;20062;-64
2022/04/08 06:57:37;;;;;;;8.13;3.58;;;;;;;9.72;100.00;96792.03;5135964;27;20077;-66
2022/04/08 07:00:05;;;;;;;9.77;3.28;;;;;;;9.73;100.00;96801.81;5154549;27;20421;-64
2022/04/08 07:02:32;;;;;;;9.10;3.05;;;;;;;9.71;100.00;96823.31;5151977;27;20061;-65
2022/04/08 07:04:58;;;;;;;9.73;3.47;;;;;;;9.73;100.00;96829.16;5153991;27;20054;-60
2022/04/08 07:07:29;;;;;;;13.98;4.10;;;;;;;9.77;100.00;96824.41;5154107;27;20067;-61
2022/04/08 07:09:56;;;;;;;6.32;2.83;;;;;;;9.87;100.00;96839.09;5142240;27;20099;-60
2022/04/08 07:12:23;;;;;;;4.28;2.95;;;;;;;9.86;100.00;96854.75;5133419;27;20043;-60
2022/04/08 07:14:49;;;;;;;11.20;3.45;;;;;;;9.87;100.00;96859.03;5133006;27;20055;-60
2022/04/08 07:17:15;;;;;;;13.73;6.85;;;;;;;9.86;100.00;96857.47;5147093;27;20043;-60
2022/04/08 07:19:41;;;;;;;10.80;4.07;;;;;;;9.80;100.00;96859.13;5147525;27;20054;-59
2022/04/08 07:22:07;;;;;;;12.35;4.35;;;;;;;9.89;100.00;96837.47;5153784;27;20077;-60
2022/04/08 07:24:34;;;;;;;22.42;3.67;;;;;;;10.11;100.00;96848.84;5153454;27;20050;-60
2022/04/08 07:27:02;;;;;;;10.82;4.13;;;;;;;10.21;100.00;96860.78;5153739;27;20050;-60
2022/04/08 07:29:28;;;;;;;7.32;3.47;;;;;;;10.25;100.00;96866.97;5151979;27;20049;-61
2022/04/08 07:31:54;;;;;;;6.25;3.05;;;;;;;10.28;100.00;96868.91;5152500;27;20358;-60
2022/04/08 07:34:21;;;;;;;8.88;3.38;;;;;;;10.32;100.00;96855.16;5142026;27;20062;-60
2022/04/08 07:36:47;;;;;;;6.90;2.83;;;;;;;10.24;100.00;96856.44;5134855;27;20143;-59
2022/04/08 07:39:13;;;;;;;13.35;3.63;;;;;;;10.38;100.00;96852.69;5132973;27;20047;-59
2022/04/08 07:41:40;;;;;;;5.28;3.75;;;;;;;10.58;100.00;96857.00;5152514;27;20050;-61
2022/04/08 07:44:06;;;;;;;11.98;5.85;;;;;;;10.62;100.00;96851.44;5151132;27;20061;-60
2022/04/08 07:46:32;;;;;;;7.90;2.78;;;;;;;10.45;100.00;96830.66;5148555;27;20046;-59
2022/04/08 07:48:59;;;;;;;6.70;3.05;;;;;;;10.55;100.00;96837.88;5152684;27;20488;-59
2022/04/08 07:51:25;;;;;;;9.88;3.83;;;;;;;10.61;100.00;96836.22;5150509;27;20047;-59
2022/04/08 07:53:51;;;;;;;6.82;3.40;;;;;;;10.54;100.00;96845.34;5151261;27;20058;-59
2022/04/08 07:56:17;;;;;;;3.47;2.88;;;;;;;10.62;100.00;96842.47;5132464;27;20059;-60
2022/04/08 07:58:47;;;;;;;8.75;3.25;;;;;;;10.57;100.00;96835.50;5132184;28;20050;-59
2022/04/08 08:01:14;;;;;;;6.68;3.15;;;;;;;10.40;100.00;96837.41;5132231;28;20480;-60
2022/04/08 08:03:42;;;;;;;6.30;3.13;;;;;;;10.46;100.00;96846.69;5132463;27;20055;-60
2022/04/08 08:06:08;;;;;;;6.95;2.35;;;;;;;10.59;100.00;96849.53;5134842;27;20667;-60
2022/04/08 08:08:34;;;;;;;9.55;3.17;;;;;;;10.58;100.00;96835.06;5131462;27;20517;-60
2022/04/08 08:11:00;;;;;;;4.55;2.90;;;;;;;10.55;100.00;96827.69;5144224;27;20046;-60
2022/04/08 08:13:27;;;;;;;5.25;2.30;;;;;;;10.48;100.00;96824.34;5152750;27;20141;-60
2022/04/08 08:15:54;;;;;;;9.60;3.40;;;;;;;10.57;100.00;96857.44;5153065;27;20058;-60
2022/04/08 08:18:21;;;;;;;7.32;2.55;;;;;;;10.56;100.00;96858.59;5144533;27;20050;-61
2022/04/08 08:20:49;;;;;;;7.88;2.85;;;;;;;10.53;100.00;96841.06;5139999;27;20055;-59
2022/04/08 08:23:15;;;;;;;3.65;2.60;;;;;;;10.51;100.00;96850.88;5136024;27;20047;-60
2022/04/08 08:25:42;;;;;;;4.80;3.40;;;;;;;10.36;100.00;96844.88;5131957;27;20473;-60
2022/04/08 08:28:08;;;;;;;8.82;3.10;;;;;;;10.32;100.00;96852.41;5132952;27;20051;-60
2022/04/08 08:30:35;;;;;;;2.75;1.85;;;;;;;10.31;100.00;96848.13;5134182;27;20043;-59
2022/04/08 08:33:04;;;;;;;5.20;2.45;;;;;;;10.39;100.00;96856.97;5132055;27;20099;-60
2022/04/08 08:35:32;;;;;;;5.47;2.53;;;;;;;10.55;100.00;96866.06;5148539;27;20046;-60
2022/04/08 08:37:59;;;;;;;14.68;3.90;;;;;;;10.68;100.00;96863.47;5143301;27;20055;-60
2022/04/08 08:40:26;;;;;;;5.55;2.80;;;;;;;10.72;100.00;96855.94;5145776;27;20417;-59
2022/04/08 08:42:52;;;;;;;13.25;3.05;;;;;;;10.78;100.00;96857.00;5132106;28;20539;-60
2022/04/08 08:45:18;;;;;;;5.43;3.03;;;;;;;10.90;100.00;96824.69;5131868;28;20055;-60
2022/04/08 08:47:48;;;;;;;4.75;2.25;;;;;;;10.96;100.00;96776.34;5131735;27;20047;-59
2022/04/08 08:50:17;;;;;;;3.58;2.40;;;;;;;11.05;100.00;96736.19;5131209;28;20051;-60
2022/04/08 08:52:44;;;;;;;7.13;2.63;;;;;;;11.15;100.00;96739.88;5131702;27;20055;-60
2022/04/08 08:55:10;;;;;;;3.65;2.20;;;;;;;11.19;100.00;96731.59;5132162;27;20051;-60
2022/04/08 08:57:36;;;;;;;8.88;3.60;;;;;;;11.13;100.00;96714.09;5137349;27;20050;-59
2022/04/08 09:00:07;;;;;;;5.95;2.40;;;;;;;11.07;100.00;96694.66;5131861;28;20058;-59
2022/04/08 09:02:34;;;;;;;5.40;2.50;;;;;;;11.01;100.00;96729.25;5131350;27;20172;-60
2022/04/08 09:05:09;;;;;;;6.70;3.10;;;;;;;10.89;100.00;96683.31;5131814;27;20055;-60
2022/04/08 09:07:36;;;;;;;3.72;2.30;;;;;;;10.83;100.00;96672.13;5131461;28;20058;-60
2022/04/08 09:10:03;;;;;;;7.45;2.78;;;;;;;10.85;100.00;96688.88;5131052;27;20051;-61
2022/04/08 09:12:29;;;;;;;5.90;3.40;;;;;;;11.04;100.00;96742.13;5131201;27;20055;-61
2022/04/08 09:14:57;;;;;;;5.38;2.92;;;;;;;11.01;100.00;96656.00;5131430;28;20055;-60
2022/04/08 09:17:24;;;;;;;7.35;2.55;;;;;;;11.05;100.00;96584.63;5131507;27;20047;-60
2022/04/08 09:19:52;;;;;;;2.67;2.28;;;;;;;10.99;100.00;96559.72;5129814;27;20058;-61
2022/04/08 09:22:20;;;;;;;6.70;3.13;;;;;;;11.06;100.00;96588.91;5131199;28;20043;-60
2022/04/08 09:24:47;;;;;;;2.90;2.45;;;;;;;11.07;100.00;96618.66;5130878;27;20186;-60
2022/04/08 09:27:13;;;;;;;4.32;2.80;;;;;;;11.10;100.00;96572.41;5131029;27;20402;-60
2022/04/08 09:29:42;;;;;;;6.90;3.20;;;;;;;11.07;100.00;96552.84;5130496;27;20051;-61
2022/04/08 09:32:10;;;;;;;6.97;3.97;;;;;;;10.97;100.00;96528.47;5130903;27;20051;-60
2022/04/08 09:34:37;;;;;;;5.50;3.40;;;;;;;10.98;100.00;96598.53;5131184;27;20055;-61
2022/04/08 09:37:08;;;;;;;7.63;3.53;;;;;;;10.98;100.00;96604.00;5130958;28;20456;-61
2022/04/08 09:39:34;;;;;;;11.90;4.28;;;;;;;11.03;100.00;96630.91;5131387;27;20043;-60
2022/04/08 09:42:05;;;;;;;10.35;5.25;;;;;;;11.08;100.00;96622.16;5130849;27;20051;-61
2022/04/08 09:44:35;;;;;;;10.15;4.47;;;;;;;11.18;100.00;96651.28;5132008;27;20059;-61
2022/04/08 09:47:01;;;;;;;8.43;4.45;;;;;;;11.11;100.00;96563.72;5130875;27;20442;-60
2022/04/08 09:49:27;;;;;;;11.68;5.18;;;;;;;11.18;100.00;96571.00;5130390;28;20050;-61
2022/04/08 09:51:55;;;;;;;19.75;7.20;;;;;;;11.34;100.00;96647.00;5130905;27;20124;-62
2022/04/08 09:54:22;;;;;;;15.95;5.63;;;;;;;11.35;100.00;96637.56;5130799;28;20055;-59
2022/04/08 09:56:49;;;;;;;14.57;5.32;;;;;;;11.44;100.00;96611.06;5130810;28;20050;-60
2022/04/08 09:59:20;;;;;;;7.97;4.03;;;;;;;11.43;100.00;96488.03;5132566;27;20047;-61
2022/04/08 10:01:47;;;;;;;6.47;4.55;;;;;;;11.24;100.00;96435.66;5143657;27;20055;-59
2022/04/08 10:04:14;;;;;;;12.13;5.85;;;;;;;11.23;100.00;96560.28;5140526;27;20497;-60
2022/04/08 10:06:42;;;;;;;8.63;4.40;;;;;;;11.21;100.00;96485.88;5142635;27;20054;-60
2022/04/08 10:09:10;;;;;;;12.93;5.15;;;;;;;11.38;100.00;96507.78;5147311;27;20426;-60
2022/04/08 10:11:45;;;;;;;11.75;4.03;;;;;;;11.49;100.00;96469.81;5148206;27;20047;-59
2022/04/08 10:14:26;;;;;;;10.60;4.30;;;;;;;11.35;100.00;96254.31;5130419;27;20051;-60
2022/04/08 10:16:53;;;;;;;11.55;4.63;;;;;;;11.36;100.00;96340.13;5143709;27;20071;-59
2022/04/08 10:19:21;;;;;;;12.73;4.38;;;;;;;11.20;100.00;96355.47;5150942;27;20042;-63
2022/04/08 10:21:52;;;;;;;14.60;4.72;;;;;;;11.12;100.00;96521.38;5136354;27;20047;-60
2022/04/08 10:24:23;;;;;;;10.75;4.95;;;;;;;10.98;100.00;96587.56;5144429;27;20043;-58
2022/04/08 10:26:57;;;;;;;11.07;5.00;;;;;;;10.93;100.00;96741.56;5137337;27;20459;-60
2022/04/08 10:29:25;;;;;;;12.02;5.70;;;;;;;10.79;100.00;96869.50;5143088;27;20490;-60
2022/04/08 10:31:58;;;;;;;5.90;2.80;;;;;;;10.45;100.00;96882.69;5149835;27;20057;-60
2022/04/08 10:34:26;;;;;;;3.33;2.10;;;;;;;9.83;100.00;96891.16;5140368;27;20051;-60
2022/04/08 10:36:53;;;;;;;3.50;2.13;;;;;;;9.35;100.00;96881.28;5133925;27;20043;-59
2022/04/08 10:39:21;;;;;;;5.50;2.45;;;;;;;9.00;100.00;96933.69;5134975;27;20046;-60
2022/04/08 10:41:49;;;;;;;2.15;1.52;;;;;;;8.88;100.00;96954.91;5133814;27;20399;-59
2022/04/08 10:44:16;;;;;;;5.97;2.15;;;;;;;9.01;100.00;96968.03;5143701;27;20054;-59
2022/04/08 10:46:51;;;;;;;4.15;2.05;;;;;;;9.23;100.00;96952.94;5143794;27;20524;-60
2022/04/08 10:49:18;;;;;;;7.78;2.97;;;;;;;9.47;100.00;96933.91;5135741;27;20051;-60
2022/04/08 10:51:45;;;;;;;2.78;2.10;;;;;;;9.65;100.00;96939.88;5142420;27;20051;-60
2022/04/08 10:54:11;;;;;;;2.78;1.70;;;;;;;9.82;100.00;96952.53;5133555;27;20524;-60
2022/04/08 10:56:38;;;;;;;7.20;2.30;;;;;;;9.89;100.00;96965.31;5139046;27;20506;-59
2022/04/08 10:59:05;;;;;;;4.32;2.22;;;;;;;9.92;100.00;96975.44;5141150;27;20050;-60
2022/04/08 11:01:34;;;;;;;11.00;3.92;;;;;;;10.04;100.00;96966.66;5151023;27;20051;-60
2022/04/08 11:04:03;;;;;;;2.78;2.10;;;;;;;10.08;100.00;96966.63;5139444;27;20089;-60
2022/04/08 11:06:31;;;;;;;5.13;2.10;;;;;;;10.06;100.00;96952.56;5150093;27;20469;-59
2022/04/08 11:09:05;;;;;;;13.57;3.35;;;;;;;10.08;100.00;96939.22;5136796;27;20058;-60
2022/04/08 11:11:33;;;;;;;4.22;2.05;;;;;;;10.20;100.00;96952.34;5151754;27;20047;-60
2022/04/08 11:14:00;;;;;;;4.18;2.90;;;;;;;10.34;100.00;96954.09;5153693;27;20058;-61
2022/04/08 11:16:28;;;;;;;4.40;1.95;;;;;;;10.52;100.00;96935.38;5143819;27;20525;-61
2022/04/08 11:18:55;;;;;;;6.93;3.05;;;;;;;10.88;100.00;96874.44;5141526;27;20047;-61
2022/04/08 11:21:24;;;;;;;3.90;2.20;;;;;;;11.27;100.00;96856.38;5136119;27;20109;-61
2022/04/08 11:23:57;;;;;;;6.05;2.47;;;;;;;11.59;100.00;96761.59;5136002;27;20490;-61
2022/04/08 11:26:23;;;;;;;4.30;2.47;;;;;;;11.79;100.00;96572.84;5149801;27;20046;-61